CST,Max TemperatureF,Mean TemperatureF,Min TemperatureF,Max Dew PointF,MeanDew PointF,Min DewpointF,Max Humidity, Mean Humidity, Min Humidity, Max Sea Level PressureIn, Mean Sea Level PressureIn, Min Sea Level PressureIn, Max VisibilityMiles, Mean VisibilityMiles, Min VisibilityMiles, Max Wind SpeedMPH, Mean Wind SpeedMPH, Max Gust SpeedMPH,PrecipitationIn, CloudCover, Events, WindDirDegrees
2013-10-1,88,80,72,75,73,71,94,79,52,29.92,29.84,29.76,12,7,2,9,3,,0.08,6,Fog-Rain,230
2013-10-2,89,80,72,75,73,71,94,83,56,29.88,29.81,29.74,12,7,2,13,5,,0.43,5,Fog-Rain-Thunderstorm,127
2013-10-3,87,80,72,75,73,70,94,81,47,29.89,29.83,29.78,12,7,1,10,5,,0.00,7,Rain-Thunderstorm,199
2013-10-4,85,78,71,75,73,70,94,84,66,29.92,29.87,29.81,12,8,6,10,4,,0.12,6,Fog-Rain,179
2013-10-5,86,80,73,75,74,72,94,78,63,29.91,29.83,29.75,12,8,6,10,4,,0.00,6,Rain,239
2013-10-6,88,80,73,77,74,70,94,81,56,29.90,29.84,29.78,12,7,3,8,4,,0.00,6,Rain-Thunderstorm,87
2013-10-7,89,80,72,75,73,70,94,77,53,29.91,29.85,29.76,12,6,1,13,4,,0.00,4,Fog-Rain-Thunderstorm,249
2013-10-8,92,82,73,77,74,72,95,77,45,29.90,29.84,29.76,12,6,0,8,4,,0.16,4,Fog-Rain-Thunderstorm,74
2013-10-9,92,82,73,75,72,68,91,65,42,29.88,29.82,29.76,12,8,6,18,6,,0.00,5,,79
2013-10-10,90,80,71,73,72,70,94,69,46,29.91,29.82,29.75,12,8,6,8,4,,0.00,6,,109
2013-10-11,88,81,74,75,73,70,94,78,60,29.88,29.82,29.75,12,7,1,10,4,,0.08,6,Rain-Thunderstorm,256
2013-10-12,89,80,70,74,72,70,94,75,53,29.90,29.83,29.76,12,7,1,14,5,,0.00,5,Rain-Thunderstorm,58
2013-10-13,89,80,72,73,70,68,88,66,44,29.89,29.82,29.76,12,8,6,14,7,,0.00,4,,97
2013-10-14,89,80,70,73,71,68,89,70,47,29.87,29.81,29.75,12,8,6,9,3,,0.00,5,Rain,310
2013-10-15,88,80,71,74,73,70,94,79,54,29.91,29.84,29.78,12,7,5,9,4,,0.00,6,Rain-Thunderstorm,107
2013-10-16,86,78,71,75,72,70,100,86,66,29.94,29.87,29.82,12,6,1,12,5,,2.44,6,Fog-Rain-Thunderstorm,250
2013-10-17,84,76,69,75,73,68,94,82,66,29.98,29.88,29.78,12,8,6,7,3,,0.00,7,,162
2013-10-18,83,78,71,76,74,70,94,84,71,29.94,29.85,29.77,12,7,2,12,5,,0.00,6,Rain,260
2013-10-19,86,78,71,75,73,70,95,85,63,29.90,29.85,29.79,12,6,0,8,4,,0.00,6,Fog-Rain-Thunderstorm,180
2013-10-20,88,80,72,75,74,71,94,81,59,29.92,29.84,29.76,12,6,0,9,3,,0.04,5,Fog-Rain-Thunderstorm,192
2013-10-21,91,82,73,75,73,72,94,82,48,29.93,29.85,29.78,12,6,0,12,4,,0.20,7,Rain-Thunderstorm,137
2013-10-22,88,80,71,75,73,70,94,82,54,29.88,29.83,29.76,12,6,0,9,3,,0.20,6,Fog-Rain,359
2013-10-23,89,81,73,75,73,72,94,79,56,29.88,29.81,29.73,12,7,2,12,3,,0.00,6,Rain-Thunderstorm,121
2013-10-24,86,79,72,75,73,70,94,79,64,29.90,29.83,29.75,12,7,2,6,2,,0.04,5,Rain,274
2013-10-25,91,82,73,77,73,70,94,77,44,29.88,29.82,29.75,12,7,1,10,3,,0.79,6,Fog-Rain-Thunderstorm,340
2013-10-26,85,78,72,75,73,71,94,82,70,29.91,29.85,29.79,12,7,6,8,4,,0.02,7,Rain,126
2013-10-27,87,80,73,73,73,72,95,81,62,29.90,29.85,29.78,12,7,1,10,4,,0.43,6,Rain,254
2013-10-28,86,78,71,75,74,70,94,79,63,29.91,29.85,29.78,12,7,6,12,4,,0.04,6,Rain,276
2013-10-29,91,82,73,77,74,72,94,74,48,29.91,29.84,29.77,12,6,0,13,4,,0.00,5,Fog-Rain,129
2013-10-30,90,82,73,73,72,71,89,70,46,29.92,29.84,29.77,12,8,6,10,6,,0.00,6,,74
2013-10-31,89,80,72,75,74,71,94,73,55,29.91,29.83,29.75,12,8,6,9,4,,0.00,5,,222